Time;durP1;ratioP1;P1;durP2;ratioP2;P2;SDS_P1;SDS_P2;PMS_P1;PMS_P2;Temp;Humidity;BMP_temperature;BMP_pressure;BME280_temperature;BME280_humidity;BME280_pressure;Samples;Min_cycle;Max_cycle;Signal;HPM_P1;HPM_P2
2023/01/29 00:00:52;;;;;;;723.47;668.58;;;-4.60;99.90;;;;;;4983639;28;20199;-82
2023/01/29 00:03:20;;;;;;;738.55;683.67;;;-4.40;99.90;;;;;;4984076;28;20200;-82
2023/01/29 00:05:47;;;;;;;747.58;692.13;;;-4.00;99.90;;;;;;4984419;28;20575;-82
2023/01/29 00:08:15;;;;;;;772.17;714.28;;;-3.80;99.90;;;;;;4991982;28;20242;-81
2023/01/29 00:10:42;;;;;;;779.70;718.80;;;-3.70;99.90;;;;;;5003541;28;20207;-83
2023/01/29 00:13:09;;;;;;;785.30;725.67;;;-3.70;99.90;;;;;;4995319;28;20203;-82
2023/01/29 00:15:35;;;;;;;780.80;722.50;;;-3.60;99.90;;;;;;4983694;28;20199;-82
2023/01/29 00:18:02;;;;;;;795.72;733.75;;;-3.40;99.90;;;;;;4988748;28;20214;-82
2023/01/29 00:20:30;;;;;;;795.72;734.75;;;-3.60;99.90;;;;;;5003080;28;20688;-82
2023/01/29 00:22:56;;;;;;;809.00;745.63;;;-3.60;99.90;;;;;;4998461;28;20196;-82
2023/01/29 00:25:25;;;;;;;798.28;735.78;;;-3.70;99.90;;;;;;4983800;28;20199;-83
2023/01/29 00:27:51;;;;;;;802.25;740.30;;;-3.80;99.90;;;;;;4987039;28;20219;-82
2023/01/29 00:30:19;;;;;;;775.33;716.42;;;-3.90;99.90;;;;;;5002895;28;20670;-83
2023/01/29 00:32:46;;;;;;;795.10;735.67;;;-3.90;99.90;;;;;;4999367;28;20217;-82
2023/01/29 00:35:13;;;;;;;788.95;729.33;;;-3.80;99.90;;;;;;4983553;28;20199;-83
2023/01/29 00:37:40;;;;;;;791.05;729.00;;;-4.00;99.90;;;;;;4983176;28;20756;-82
2023/01/29 00:40:09;;;;;;;789.17;729.08;;;-3.60;99.90;;;;;;4983375;28;20200;-82
2023/01/29 00:45:21;;;;;;;781.55;721.03;;;-3.50;99.90;;;;;;4983174;28;20211;-82
2023/01/29 00:47:48;;;;;;;797.05;738.80;;;-3.40;99.90;;;;;;4982783;28;20226;-82
2023/01/29 00:50:15;;;;;;;789.42;730.28;;;-3.40;99.90;;;;;;4982869;28;20207;-83
2023/01/29 00:52:42;;;;;;;772.00;713.17;;;-3.50;99.90;;;;;;4982658;28;20207;-82
2023/01/29 00:55:10;;;;;;;764.55;707.45;;;-3.70;99.90;;;;;;5002265;28;20207;-83
2023/01/29 00:57:39;;;;;;;762.03;704.53;;;-3.60;99.90;;;;;;5002034;28;20229;-82
2023/01/29 01:00:08;;;;;;;773.92;716.95;;;-3.90;99.90;;;;;;4985001;28;20188;-82
2023/01/29 01:05:19;;;;;;;775.90;716.47;;;-3.40;99.90;;;;;;5001938;28;20242;-82
2023/01/29 01:07:47;;;;;;;809.50;749.83;;;-3.40;99.90;;;;;;5001611;28;20221;-83
2023/01/29 01:10:19;;;;;;;797.67;737.50;;;-3.20;99.90;;;;;;5001117;28;20195;-82
2023/01/29 01:12:49;;;;;;;800.90;739.72;;;-3.20;99.90;;;;;;5002458;28;20205;-82
2023/01/29 01:15:16;;;;;;;790.22;729.58;;;-3.30;99.90;;;;;;5001570;28;20603;-83
2023/01/29 01:17:43;;;;;;;787.75;728.25;;;-3.40;99.90;;;;;;5002306;28;20219;-82
2023/01/29 01:20:11;;;;;;;775.08;717.15;;;-3.90;99.90;;;;;;4987540;28;20674;-82
2023/01/29 01:22:38;;;;;;;759.90;702.85;;;-3.70;99.90;;;;;;4982794;28;20690;-82
2023/01/29 01:25:05;;;;;;;761.35;703.15;;;-4.00;99.90;;;;;;4983218;28;20195;-83
2023/01/29 01:27:33;;;;;;;775.10;717.05;;;-3.90;99.90;;;;;;4982328;28;20227;-82
2023/01/29 01:30:01;;;;;;;764.58;707.20;;;-3.80;99.90;;;;;;4983484;28;20282;-83
2023/01/29 01:32:28;;;;;;;751.33;694.17;;;-3.70;99.90;;;;;;4982084;28;20235;-83
2023/01/29 01:34:55;;;;;;;753.40;696.35;;;-4.10;99.90;;;;;;4993365;28;20195;-82
2023/01/29 01:37:22;;;;;;;773.70;715.28;;;-4.10;99.90;;;;;;5001203;28;20218;-83
2023/01/29 01:39:49;;;;;;;785.33;724.53;;;-4.10;99.90;;;;;;4992595;28;20198;-81
2023/01/29 01:42:16;;;;;;;784.67;727.15;;;-4.20;99.90;;;;;;4982599;28;20227;-83
2023/01/29 01:44:55;;;;;;;775.08;717.08;;;-4.20;99.90;;;;;;4990052;28;20266;-83
2023/01/29 01:47:31;;;;;;;789.55;730.40;;;-4.10;99.90;;;;;;4989396;28;20220;-83
2023/01/29 01:50:02;;;;;;;797.53;735.13;;;-4.20;99.90;;;;;;4991643;28;20202;-82
2023/01/29 01:52:32;;;;;;;794.35;730.53;;;-4.20;99.90;;;;;;5001693;28;20285;-82
2023/01/29 01:55:00;;;;;;;799.25;737.47;;;-4.20;99.90;;;;;;5001639;28;20191;-83
2023/01/29 01:57:30;;;;;;;803.40;742.53;;;-4.40;99.90;;;;;;5001773;28;20227;-82
2023/01/29 01:59:59;;;;;;;790.17;729.50;;;-4.10;99.90;;;;;;4997363;28;20191;-83
2023/01/29 02:10:45;;;;;;;740.78;685.28;;;-4.30;99.90;;;;;;4985166;28;20198;-83
2023/01/29 02:13:15;;;;;;;722.70;668.05;;;-4.40;99.90;;;;;;5001417;28;20203;-82
2023/01/29 02:15:45;;;;;;;734.22;679.13;;;-4.60;99.90;;;;;;4999407;28;20275;-82
2023/01/29 02:18:15;;;;;;;757.75;700.05;;;-4.60;99.90;;;;;;4981618;28;20216;-82
2023/01/29 02:20:43;;;;;;;751.88;694.80;;;-4.60;99.90;;;;;;4996029;28;20199;-82
2023/01/29 02:23:34;;;;;;;763.45;704.97;;;-5.00;99.90;;;;;;5001242;28;20206;-82
2023/01/29 02:26:25;;;;;;;767.13;706.15;;;-4.60;99.90;;;;;;5001076;28;20191;-82
2023/01/29 02:29:21;;;;;;;768.47;708.88;;;-4.40;99.90;;;;;;5000846;28;20226;-82
2023/01/29 02:31:51;;;;;;;791.28;731.55;;;-4.20;99.90;;;;;;4981899;28;20276;-82
2023/01/29 02:34:26;;;;;;;801.00;738.90;;;-3.90;99.90;;;;;;4992331;28;20199;-82
2023/01/29 02:37:03;;;;;;;802.78;741.08;;;-3.70;99.90;;;;;;5001549;28;20213;-83
2023/01/29 02:39:36;;;;;;;787.05;723.72;;;-3.60;99.90;;;;;;4988174;28;20199;-82
2023/01/29 02:42:11;;;;;;;774.75;717.13;;;-3.60;99.90;;;;;;4987168;28;20231;-83
2023/01/29 02:44:43;;;;;;;798.80;739.17;;;-4.10;99.90;;;;;;5001128;28;20198;-82
2023/01/29 02:47:17;;;;;;;774.92;715.38;;;-4.20;99.90;;;;;;4993593;28;20203;-82
2023/01/29 02:49:49;;;;;;;793.22;733.15;;;-3.90;99.90;;;;;;4983328;28;20613;-83
2023/01/29 02:52:20;;;;;;;783.05;722.58;;;-4.00;99.90;;;;;;5001076;28;20203;-83
2023/01/29 02:54:53;;;;;;;773.75;715.30;;;-4.10;99.90;;;;;;5000733;28;20198;-82
2023/01/29 02:57:27;;;;;;;755.80;699.03;;;-4.50;99.90;;;;;;4987344;28;20319;-81
2023/01/29 02:59:59;;;;;;;764.38;705.10;;;-4.20;99.90;;;;;;4981880;28;20199;-82
2023/01/29 03:02:32;;;;;;;741.78;683.25;;;-4.40;99.90;;;;;;4998061;28;20271;-82
2023/01/29 03:05:01;;;;;;;739.40;680.22;;;-4.10;99.90;;;;;;5001043;28;20198;-83
2023/01/29 03:07:41;;;;;;;754.80;694.90;;;-4.10;99.90;;;;;;5000334;28;20741;-83
2023/01/29 03:10:16;;;;;;;773.58;713.40;;;-4.10;99.90;;;;;;5000693;28;20210;-82
2023/01/29 03:12:43;;;;;;;838.17;768.25;;;-4.10;99.90;;;;;;5001126;28;20193;-83
2023/01/29 03:15:19;;;;;;;842.63;772.53;;;-4.10;99.90;;;;;;5004599;28;20273;-82
2023/01/29 03:17:51;;;;;;;842.83;774.20;;;-4.00;99.90;;;;;;4986919;28;20215;-83
2023/01/29 03:20:24;;;;;;;839.65;773.53;;;-4.00;99.90;;;;;;4992718;28;20206;-82
2023/01/29 03:22:57;;;;;;;840.88;773.83;;;-4.00;99.90;;;;;;5004479;28;20249;-82
2023/01/29 03:33:54;;;;;;;839.22;774.45;;;-3.70;99.90;;;;;;5004479;28;20631;-83
2023/01/29 03:36:27;;;;;;;826.00;762.75;;;-3.60;99.90;;;;;;4990708;28;20570;-82
2023/01/29 03:38:54;;;;;;;822.22;757.47;;;-3.60;99.90;;;;;;4984970;28;20216;-83
2023/01/29 03:41:25;;;;;;;815.38;751.13;;;-3.60;99.90;;;;;;4998092;28;20195;-82
2023/01/29 03:44:01;;;;;;;807.30;743.70;;;-3.60;99.90;;;;;;5004377;28;20202;-82
2023/01/29 03:46:32;;;;;;;833.28;769.60;;;-3.70;99.90;;;;;;4990737;28;20191;-82
2023/01/29 03:49:07;;;;;;;824.60;758.92;;;-3.70;99.90;;;;;;4986807;28;20729;-83
2023/01/29 03:51:37;;;;;;;828.40;765.03;;;-3.80;99.90;;;;;;5004029;28;20203;-82
2023/01/29 03:54:09;;;;;;;813.33;750.25;;;-4.30;99.90;;;;;;5000468;28;20676;-82
2023/01/29 03:56:45;;;;;;;794.97;732.33;;;-3.90;99.90;;;;;;4985841;28;20200;-82
2023/01/29 03:59:20;;;;;;;797.42;733.78;;;-4.00;99.90;;;;;;5003924;28;20218;-82
2023/01/29 04:01:54;;;;;;;811.20;745.70;;;-3.90;99.90;;;;;;5002003;28;20209;-83
2023/01/29 04:04:24;;;;;;;801.63;736.50;;;-4.20;99.90;;;;;;4984693;28;20206;-82
2023/01/29 04:06:55;;;;;;;810.70;746.67;;;-3.80;99.90;;;;;;5001620;28;20559;-82
2023/01/29 04:09:27;;;;;;;816.70;751.08;;;-3.60;99.90;;;;;;4990003;28;20231;-82
2023/01/29 04:11:58;;;;;;;821.80;757.10;;;-3.60;99.90;;;;;;4984071;28;20191;-84
2023/01/29 04:14:25;;;;;;;802.05;738.08;;;-3.50;99.90;;;;;;4984302;28;20199;-82
2023/01/29 04:16:57;;;;;;;818.85;755.55;;;-3.30;99.90;;;;;;4984204;28;20231;-82
2023/01/29 04:19:24;;;;;;;805.10;742.42;;;-3.60;99.90;;;;;;4997621;28;20193;-82
2023/01/29 04:21:59;;;;;;;795.15;732.83;;;-3.70;99.90;;;;;;5001327;28;20205;-81
2023/01/29 04:24:26;;;;;;;788.90;726.65;;;-3.70;99.90;;;;;;5002409;28;20203;-82
2023/01/29 04:27:03;;;;;;;798.78;736.97;;;-3.50;99.90;;;;;;4997862;28;20616;-82
2023/01/29 04:29:40;;;;;;;802.67;738.97;;;-3.50;99.90;;;;;;4983889;28;20215;-83
2023/01/29 04:32:15;;;;;;;795.42;729.95;;;-3.60;99.90;;;;;;4990470;28;20191;-83
2023/01/29 04:34:53;;;;;;;770.88;708.25;;;-3.70;99.90;;;;;;5002953;28;20585;-82
2023/01/29 04:37:29;;;;;;;775.17;715.10;;;-3.80;99.90;;;;;;4994937;28;20228;-82
2023/01/29 04:40:03;;;;;;;766.38;706.50;;;-3.90;99.90;;;;;;4984414;28;20199;-82
2023/01/29 04:42:36;;;;;;;772.05;710.10;;;-4.50;99.90;;;;;;4992198;28;20198;-82
2023/01/29 04:45:12;;;;;;;769.28;708.63;;;-4.10;99.90;;;;;;5002564;28;20207;-83
2023/01/29 04:47:50;;;;;;;760.08;698.78;;;-4.20;99.90;;;;;;4992498;28;20584;-82
2023/01/29 04:50:24;;;;;;;758.78;699.35;;;-4.10;99.90;;;;;;4982740;28;20235;-83
2023/01/29 04:52:58;;;;;;;765.47;705.83;;;-4.20;99.90;;;;;;4993694;28;20191;-83
2023/01/29 04:55:35;;;;;;;759.63;699.40;;;-4.00;99.90;;;;;;4992344;28;20210;-82
2023/01/29 04:58:11;;;;;;;766.95;706.22;;;-4.10;99.90;;;;;;4990478;28;20218;-83
2023/01/29 05:00:41;;;;;;;771.60;713.47;;;-4.40;99.90;;;;;;4990395;28;20195;-82
2023/01/29 05:03:13;;;;;;;785.15;723.85;;;-4.30;99.90;;;;;;5004248;28;20209;-82
2023/01/29 05:05:41;;;;;;;782.85;721.53;;;-4.30;99.90;;;;;;5003076;28;20270;-82
2023/01/29 05:08:09;;;;;;;787.38;726.03;;;-3.90;99.90;;;;;;4997508;28;20220;-82
2023/01/29 05:10:35;;;;;;;793.50;732.78;;;-4.10;99.90;;;;;;4984164;28;20210;-82
2023/01/29 05:13:05;;;;;;;784.97;723.88;;;-4.20;99.90;;;;;;4996081;28;20201;-82
2023/01/29 05:15:37;;;;;;;796.78;732.97;;;-4.20;99.90;;;;;;4984150;28;20195;-82
2023/01/29 05:18:07;;;;;;;809.30;745.08;;;-4.10;99.90;;;;;;4999700;28;20214;-82
2023/01/29 05:20:38;;;;;;;816.22;748.33;;;-4.30;99.90;;;;;;4994537;28;20200;-82
2023/01/29 05:23:08;;;;;;;826.33;758.55;;;-4.20;99.90;;;;;;4982932;28;20195;-82
2023/01/29 05:25:35;;;;;;;820.10;755.22;;;-4.20;99.90;;;;;;4998202;28;20203;-82
2023/01/29 05:28:04;;;;;;;836.72;767.50;;;-4.10;99.90;;;;;;4988507;28;20306;-82
2023/01/29 05:30:33;;;;;;;829.17;764.78;;;-4.00;99.90;;;;;;4984432;28;20263;-82
2023/01/29 05:33:02;;;;;;;821.33;755.33;;;-3.60;99.90;;;;;;4988867;28;20203;-83
2023/01/29 05:35:29;;;;;;;821.58;758.33;;;-3.60;99.90;;;;;;5004779;28;20191;-82
2023/01/29 05:37:58;;;;;;;822.38;755.97;;;-3.40;99.90;;;;;;5003702;28;20206;-82
2023/01/29 05:40:25;;;;;;;814.45;750.10;;;-3.40;99.90;;;;;;5001838;28;20203;-82
2023/01/29 05:42:52;;;;;;;827.00;765.20;;;-3.40;99.90;;;;;;5001611;28;20225;-82
2023/01/29 05:45:19;;;;;;;841.05;778.38;;;-3.20;99.90;;;;;;5002913;28;20203;-82
2023/01/29 05:47:46;;;;;;;826.58;762.97;;;-3.20;99.90;;;;;;5002819;28;20227;-82
2023/01/29 05:50:13;;;;;;;820.75;758.17;;;-3.20;99.90;;;;;;5002379;28;20203;-82
2023/01/29 05:52:41;;;;;;;802.95;742.70;;;-3.20;99.90;;;;;;5002798;28;20195;-83
2023/01/29 05:55:13;;;;;;;809.67;745.10;;;-3.00;99.90;;;;;;5003244;28;20191;-82
2023/01/29 05:57:40;;;;;;;823.15;759.00;;;-3.10;99.90;;;;;;5003879;28;20229;-82
2023/01/29 06:00:09;;;;;;;818.25;754.45;;;-3.20;99.90;;;;;;5003320;28;20231;-81
2023/01/29 06:02:35;;;;;;;820.58;757.03;;;-3.20;99.90;;;;;;5003614;28;20202;-82
2023/01/29 06:05:02;;;;;;;824.95;758.97;;;-3.20;99.90;;;;;;5002986;28;20582;-82
2023/01/29 06:07:29;;;;;;;823.13;754.65;;;-3.20;99.90;;;;;;5004034;28;20575;-82
2023/01/29 06:09:55;;;;;;;818.65;753.83;;;-3.30;99.90;;;;;;4995722;28;20697;-82
2023/01/29 06:12:24;;;;;;;818.67;753.05;;;-3.30;99.90;;;;;;4993761;28;20197;-82
2023/01/29 06:14:50;;;;;;;818.28;753.80;;;-3.30;99.90;;;;;;4989259;28;20203;-83
2023/01/29 06:17:17;;;;;;;824.97;759.03;;;-3.30;99.90;;;;;;4984788;28;20283;-82
2023/01/29 06:19:44;;;;;;;810.50;744.53;;;-3.30;99.90;;;;;;4996573;28;20202;-82
2023/01/29 06:22:11;;;;;;;822.80;755.65;;;-3.60;99.90;;;;;;5002333;28;20278;-83
2023/01/29 06:24:38;;;;;;;815.83;747.30;;;-3.40;99.90;;;;;;5001628;28;20674;-83
2023/01/29 06:27:04;;;;;;;812.70;742.13;;;-3.40;99.90;;;;;;4999519;28;20191;-83
2023/01/29 06:29:32;;;;;;;807.03;738.88;;;-3.70;99.90;;;;;;4990625;28;20222;-82
2023/01/29 06:31:59;;;;;;;805.38;738.97;;;-3.50;99.90;;;;;;4985365;28;20299;-82
2023/01/29 06:34:26;;;;;;;799.80;735.47;;;-3.50;99.90;;;;;;5001680;28;20226;-82
2023/01/29 06:36:53;;;;;;;802.15;738.08;;;-3.60;99.90;;;;;;5002770;28;20199;-83
2023/01/29 06:39:20;;;;;;;800.33;737.25;;;-3.60;99.90;;;;;;4995306;28;20191;-82
2023/01/29 06:41:46;;;;;;;795.75;731.20;;;-3.60;99.90;;;;;;4999356;28;20199;-82
2023/01/29 06:44:13;;;;;;;799.92;736.53;;;-3.50;99.90;;;;;;4983914;28;20206;-82
2023/01/29 06:46:41;;;;;;;804.10;741.30;;;-3.30;99.90;;;;;;4985223;28;20202;-81
2023/01/29 06:49:08;;;;;;;821.13;756.00;;;-3.10;99.90;;;;;;4986071;28;20220;-82
2023/01/29 06:51:35;;;;;;;831.17;766.10;;;-2.90;99.90;;;;;;4989241;28;20191;-82
2023/01/29 06:54:01;;;;;;;828.35;766.30;;;-2.80;99.90;;;;;;4987304;28;20202;-82
2023/01/29 06:56:28;;;;;;;833.85;769.20;;;-2.70;99.90;;;;;;4982585;28;20215;-82
2023/01/29 06:58:55;;;;;;;837.65;774.15;;;-2.50;99.90;;;;;;4981376;28;20235;-82
2023/01/29 07:01:21;;;;;;;830.65;767.95;;;-2.50;99.90;;;;;;4981039;28;20218;-82
2023/01/29 07:03:51;;;;;;;825.85;765.60;;;-2.40;99.90;;;;;;4981508;28;20203;-82
2023/01/29 07:06:18;;;;;;;823.95;761.50;;;-2.30;99.90;;;;;;4984201;28;20249;-82
2023/01/29 07:08:44;;;;;;;836.78;772.28;;;-2.20;99.90;;;;;;4980038;28;20690;-82
2023/01/29 07:11:11;;;;;;;815.20;754.17;;;-2.20;99.90;;;;;;4997949;28;20222;-82
2023/01/29 07:13:38;;;;;;;824.00;761.78;;;-2.10;99.90;;;;;;4999280;28;20188;-82
2023/01/29 07:16:06;;;;;;;829.95;768.33;;;-2.00;99.90;;;;;;4994254;28;20217;-82
2023/01/29 07:18:32;;;;;;;822.03;760.47;;;-2.00;99.90;;;;;;4985546;28;20282;-82
2023/01/29 07:21:05;;;;;;;812.25;750.72;;;-1.90;99.90;;;;;;4995279;28;20195;-82
2023/01/29 07:23:32;;;;;;;827.03;763.90;;;-1.90;99.90;;;;;;4991420;28;20195;-82
2023/01/29 07:26:01;;;;;;;818.53;756.55;;;-1.80;99.90;;;;;;4999806;28;20203;-82
2023/01/29 07:28:28;;;;;;;813.50;753.90;;;-1.80;99.90;;;;;;4984225;28;20242;-82
2023/01/29 07:30:56;;;;;;;813.80;755.50;;;-1.80;99.90;;;;;;5000299;28;20203;-82
2023/01/29 07:33:24;;;;;;;804.17;745.92;;;-1.70;99.90;;;;;;5000498;28;20700;-82
2023/01/29 07:35:51;;;;;;;795.33;739.83;;;-1.70;99.90;;;;;;4989633;28;20294;-82
2023/01/29 07:38:22;;;;;;;793.47;739.75;;;-1.70;99.90;;;;;;4990149;28;20254;-82
2023/01/29 07:40:51;;;;;;;792.38;736.70;;;-1.60;99.90;;;;;;4995330;28;20207;-82
2023/01/29 07:43:18;;;;;;;794.08;738.35;;;-1.50;99.90;;;;;;4992292;28;20203;-82
2023/01/29 07:45:45;;;;;;;766.47;717.17;;;-1.50;99.90;;;;;;4990396;28;20222;-82
2023/01/29 07:48:13;;;;;;;738.33;687.03;;;-1.50;99.90;;;;;;4991056;28;20760;-82
2023/01/29 07:50:42;;;;;;;716.75;672.30;;;-1.50;99.90;;;;;;4986971;28;20254;-81
2023/01/29 07:53:13;;;;;;;736.80;689.20;;;-1.40;99.90;;;;;;4982812;28;20202;-82
2023/01/29 07:55:43;;;;;;;708.97;662.22;;;-1.50;99.90;;;;;;4996521;28;20654;-82
2023/01/29 07:58:12;;;;;;;692.53;647.17;;;-1.40;99.90;;;;;;4985841;28;20220;-82
2023/01/29 08:00:39;;;;;;;698.70;652.63;;;-1.40;99.90;;;;;;4985361;28;20202;-82
2023/01/29 08:03:09;;;;;;;686.25;642.78;;;-1.30;99.90;;;;;;5001171;28;20199;-82
2023/01/29 08:05:36;;;;;;;695.97;651.53;;;-1.20;99.90;;;;;;4997832;28;20192;-82
2023/01/29 08:08:03;;;;;;;699.25;655.55;;;-1.20;99.90;;;;;;4996721;28;20589;-82
2023/01/29 08:10:30;;;;;;;696.88;654.28;;;-1.20;99.90;;;;;;5005261;28;20229;-83
2023/01/29 08:13:01;;;;;;;678.47;635.33;;;-1.10;99.90;;;;;;4994087;28;20191;-81
2023/01/29 08:15:28;;;;;;;686.13;646.85;;;-1.00;99.90;;;;;;5003859;28;20195;-82
2023/01/29 08:17:55;;;;;;;700.65;657.03;;;-1.00;99.90;;;;;;5002817;28;20226;-82
2023/01/29 08:20:23;;;;;;;714.60;670.72;;;-1.00;99.90;;;;;;5005374;28;20195;-82
2023/01/29 08:22:58;;;;;;;707.40;665.50;;;-1.00;99.90;;;;;;4997806;28;20191;-83
2023/01/29 08:25:24;;;;;;;644.60;607.53;;;-1.00;99.90;;;;;;4991335;28;20199;-82
2023/01/29 08:27:51;;;;;;;609.92;574.60;;;-0.90;99.90;;;;;;4997944;28;20605;-81
2023/01/29 08:30:20;;;;;;;591.03;554.97;;;-0.90;99.90;;;;;;4993129;28;20214;-82
2023/01/29 08:32:47;;;;;;;549.85;518.50;;;-0.80;99.90;;;;;;5005519;28;20195;-82
2023/01/29 08:35:14;;;;;;;468.40;443.33;;;-0.70;99.90;;;;;;4996357;28;20199;-81
2023/01/29 08:37:41;;;;;;;453.60;429.75;;;-0.80;99.90;;;;;;4993486;28;20218;-82
2023/01/29 08:40:11;;;;;;;496.98;470.55;;;-0.70;99.90;;;;;;4992505;28;20258;-81
2023/01/29 08:42:37;;;;;;;471.20;444.05;;;-0.60;99.90;;;;;;4994915;28;20410;-83
2023/01/29 08:45:05;;;;;;;171.25;158.07;;;-0.50;99.90;;;;;;4987878;28;20469;-80
2023/01/29 08:47:33;;;;;;;245.77;229.27;;;-0.50;99.90;;;;;;4999197;28;20242;-81
2023/01/29 08:50:00;;;;;;;232.73;216.75;;;-0.50;99.90;;;;;;4998849;28;20694;-81
2023/01/29 08:52:27;;;;;;;237.90;225.45;;;-0.30;99.90;;;;;;4991655;28;20192;-81
2023/01/29 08:54:54;;;;;;;254.35;242.63;;;-0.40;99.90;;;;;;4989249;28;20283;-81
2023/01/29 08:57:23;;;;;;;243.48;229.75;;;-0.50;99.90;;;;;;4987849;28;20305;-79
2023/01/29 08:59:51;;;;;;;232.90;220.30;;;-0.50;99.90;;;;;;4994996;28;20199;-81
2023/01/29 09:02:18;;;;;;;170.15;160.55;;;-0.40;99.90;;;;;;4995150;28;20553;-82
2023/01/29 09:04:46;;;;;;;175.23;165.63;;;-0.50;99.90;;;;;;4999701;28;20262;-80
2023/01/29 09:07:14;;;;;;;146.60;136.13;;;-0.40;99.90;;;;;;4988274;28;20196;-80
2023/01/29 09:09:45;;;;;;;133.95;123.68;;;-0.40;99.90;;;;;;4995145;28;20466;-81
2023/01/29 09:12:16;;;;;;;104.72;97.47;;;-0.40;99.90;;;;;;4992195;28;20191;-79
2023/01/29 09:14:43;;;;;;;104.07;98.10;;;-0.40;99.90;;;;;;4986522;28;20246;-81
2023/01/29 09:17:11;;;;;;;81.57;74.93;;;-0.30;99.90;;;;;;4985971;28;20206;-82
2023/01/29 09:19:41;;;;;;;72.23;65.40;;;-0.40;99.90;;;;;;4993503;28;20188;-82
2023/01/29 09:22:09;;;;;;;66.80;60.58;;;-0.30;99.90;;;;;;4989826;28;20493;-82
2023/01/29 09:24:36;;;;;;;75.75;53.90;;;-0.30;99.90;;;;;;4994217;28;20538;-83
2023/01/29 09:27:05;;;;;;;70.65;54.95;;;-0.30;99.90;;;;;;5001418;28;20230;-82
2023/01/29 09:29:32;;;;;;;64.90;49.60;;;-0.40;99.90;;;;;;5001263;28;20226;-82
2023/01/29 09:31:59;;;;;;;64.60;47.00;;;-0.30;99.90;;;;;;5000739;28;20485;-81
2023/01/29 09:34:26;;;;;;;68.10;52.42;;;-0.30;99.90;;;;;;5002444;28;20207;-83
2023/01/29 09:36:54;;;;;;;65.63;45.67;;;-0.30;99.90;;;;;;4999801;28;20223;-82
2023/01/29 09:39:22;;;;;;;70.67;48.93;;;-0.10;99.90;;;;;;4992125;28;20254;-82
2023/01/29 09:41:57;;;;;;;66.55;43.38;;;0.10;99.90;;;;;;5002191;28;20486;-82
2023/01/29 09:44:38;;;;;;;55.80;39.60;;;0.10;99.90;;;;;;4987281;28;20228;-82
2023/01/29 09:47:12;;;;;;;38.63;34.73;;;0.20;99.90;;;;;;4990767;28;20446;-81
2023/01/29 09:49:43;;;;;;;38.17;35.83;;;0.20;99.90;;;;;;4997095;28;20463;-82
2023/01/29 09:52:17;;;;;;;54.10;48.13;;;0.20;99.90;;;;;;4994056;28;20493;-82
2023/01/29 09:54:53;;;;;;;60.97;44.40;;;0.30;99.90;;;;;;5002724;28;20442;-82
2023/01/29 09:57:26;;;;;;;61.05;49.45;;;0.30;99.90;;;;;;5005330;28;20510;-81
2023/01/29 10:00:09;;;;;;;46.55;41.75;;;0.30;99.90;;;;;;5000580;28;20218;-79
2023/01/29 10:03:03;;;;;;;85.20;43.83;;;0.40;99.90;;;;;;5002286;28;20278;-81
2023/01/29 10:05:48;;;;;;;46.97;41.23;;;0.40;99.90;;;;;;5005397;28;20986;-81
2023/01/29 10:08:50;;;;;;;59.93;37.00;;;0.40;99.90;;;;;;5004372;28;20474;-82
2023/01/29 10:11:31;;;;;;;53.03;30.38;;;0.40;99.90;;;;;;4973916;28;20531;-82
2023/01/29 10:14:14;;;;;;;61.30;38.53;;;0.50;99.90;;;;;;5004301;28;20646;-82
2023/01/29 10:16:57;;;;;;;58.70;33.90;;;0.40;99.90;;;;;;5001165;28;20461;-83
2023/01/29 10:19:53;;;;;;;53.70;29.87;;;0.60;99.90;;;;;;5003298;28;20442;-82
2023/01/29 10:22:54;;;;;;;59.07;32.73;;;0.60;99.90;;;;;;4982137;28;20513;-82
2023/01/29 10:25:24;;;;;;;50.33;27.73;;;0.60;99.90;;;;;;4987605;28;20473;-82
2023/01/29 10:28:05;;;;;;;66.97;32.08;;;0.60;99.90;;;;;;5005532;28;20480;-83
2023/01/29 10:30:41;;;;;;;67.43;29.33;;;0.60;99.90;;;;;;5005565;28;20214;-83
2023/01/29 10:33:20;;;;;;;50.17;23.90;;;0.70;99.90;;;;;;4993524;28;20458;-83
2023/01/29 10:35:57;;;;;;;41.60;24.87;;;0.70;99.90;;;;;;4985682;28;20454;-82
2023/01/29 10:38:44;;;;;;;51.17;25.43;;;0.80;99.90;;;;;;4983811;28;20484;-82
2023/01/29 10:41:38;;;;;;;60.37;27.50;;;0.80;99.90;;;;;;4983821;28;20451;-83
2023/01/29 10:44:23;;;;;;;63.80;29.45;;;1.00;99.90;;;;;;4986054;28;20442;-82
2023/01/29 10:47:10;;;;;;;54.33;21.60;;;1.10;99.90;;;;;;4986792;28;20213;-82
2023/01/29 10:50:04;;;;;;;55.08;22.85;;;1.10;99.90;;;;;;4986799;28;20459;-79
2023/01/29 10:52:45;;;;;;;57.77;24.27;;;1.30;99.90;;;;;;4989191;28;20198;-82
2023/01/29 10:55:27;;;;;;;50.60;24.50;;;1.30;99.90;;;;;;5003063;28;20462;-83
2023/01/29 10:58:05;;;;;;;63.57;25.70;;;1.50;99.90;;;;;;4989094;28;20485;-82
2023/01/29 11:00:40;;;;;;;60.57;27.87;;;1.50;99.90;;;;;;4990173;28;20448;-82
2023/01/29 11:03:15;;;;;;;56.80;26.27;;;1.50;99.90;;;;;;4981577;28;20454;-81
2023/01/29 11:05:47;;;;;;;54.07;23.87;;;1.60;99.90;;;;;;4993767;28;20508;-82
2023/01/29 11:08:16;;;;;;;64.50;28.40;;;1.60;99.90;;;;;;4992894;28;20478;-82
2023/01/29 11:10:53;;;;;;;54.33;27.03;;;1.80;99.90;;;;;;4982050;28;20471;-82
2023/01/29 11:13:27;;;;;;;56.17;24.57;;;1.90;99.90;;;;;;4980595;28;20466;-82
2023/01/29 11:16:13;;;;;;;56.40;27.60;;;2.00;99.90;;;;;;4983721;28;20454;-81
2023/01/29 11:18:58;;;;;;;61.73;25.03;;;2.10;99.90;;;;;;4990390;28;20481;-82
2023/01/29 11:21:28;;;;;;;52.87;25.97;;;2.10;99.90;;;;;;4986788;28;20455;-82
2023/01/29 11:24:11;;;;;;;50.47;22.37;;;2.30;99.90;;;;;;4981390;28;20914;-81
2023/01/29 11:26:42;;;;;;;56.97;23.23;;;2.40;99.90;;;;;;4981639;28;20539;-82
2023/01/29 11:29:37;;;;;;;62.77;23.90;;;2.40;99.90;;;;;;4999203;28;20498;-82
2023/01/29 11:32:08;;;;;;;38.53;19.30;;;2.30;99.90;;;;;;4996307;28;20447;-81
2023/01/29 11:34:55;;;;;;;53.20;21.63;;;2.10;99.90;;;;;;4985691;28;20451;-82
2023/01/29 11:37:22;;;;;;;52.60;24.10;;;2.20;99.90;;;;;;4988882;28;20480;-80
2023/01/29 11:39:50;;;;;;;54.53;24.00;;;2.20;99.90;;;;;;5003659;28;20484;-82
2023/01/29 11:42:20;;;;;;;56.97;23.20;;;2.30;99.90;;;;;;5000077;28;20461;-82
2023/01/29 11:44:49;;;;;;;49.10;21.07;;;2.60;99.90;;;;;;4992071;28;20447;-83
2023/01/29 11:47:22;;;;;;;60.53;24.40;;;2.70;99.90;;;;;;4994003;28;20469;-82
2023/01/29 11:49:51;;;;;;;46.40;21.07;;;2.60;99.90;;;;;;4984975;28;20459;-82
2023/01/29 11:52:21;;;;;;;46.90;23.90;;;2.70;99.90;;;;;;4999556;28;20447;-82
2023/01/29 11:54:52;;;;;;;43.77;20.60;;;2.70;99.90;;;;;;4989288;28;20453;-82
2023/01/29 11:57:28;;;;;;;49.13;22.87;;;2.80;99.90;;;;;;4995171;28;20582;-81
2023/01/29 11:59:57;;;;;;;49.90;25.33;;;2.90;99.90;;;;;;4995485;28;20442;-82
2023/01/29 12:02:30;;;;;;;38.53;17.77;;;2.90;99.90;;;;;;5001739;28;20456;-83
2023/01/29 12:05:02;;;;;;;48.00;22.50;;;2.80;99.90;;;;;;4998750;28;20445;-82
2023/01/29 12:07:30;;;;;;;52.23;22.30;;;2.70;99.90;;;;;;4997020;28;20545;-83
2023/01/29 12:09:59;;;;;;;56.63;23.97;;;2.80;99.90;;;;;;5005764;28;20442;-82
2023/01/29 12:12:33;;;;;;;43.93;21.80;;;2.80;99.90;;;;;;5008329;28;20468;-83
2023/01/29 12:15:23;;;;;;;41.50;17.63;;;2.70;99.90;;;;;;5009114;28;20424;-83
2023/01/29 12:18:14;;;;;;;50.33;21.37;;;2.70;99.90;;;;;;4994696;28;20505;-81
2023/01/29 12:20:45;;;;;;;45.20;21.23;;;2.70;99.90;;;;;;4993674;28;20442;-81
2023/01/29 12:23:29;;;;;;;43.07;21.30;;;2.80;99.90;;;;;;5005177;28;20517;-79
2023/01/29 12:26:05;;;;;;;44.30;19.70;;;2.70;99.90;;;;;;5003594;28;20478;-81
2023/01/29 12:28:51;;;;;;;37.07;18.13;;;2.80;99.90;;;;;;4992914;28;20501;-81
2023/01/29 12:31:32;;;;;;;52.50;22.40;;;2.70;99.90;;;;;;4997702;28;20471;-81
2023/01/29 12:34:12;;;;;;;24.63;14.40;;;2.70;99.90;;;;;;4992269;28;20466;-82
2023/01/29 12:36:52;;;;;;;45.90;18.70;;;2.60;99.90;;;;;;5007031;28;20509;-81
2023/01/29 12:39:20;;;;;;;39.00;16.93;;;2.60;99.90;;;;;;5007116;28;20529;-82
2023/01/29 12:41:54;;;;;;;43.37;20.80;;;2.60;99.90;;;;;;5007056;28;20521;-82
2023/01/29 12:44:28;;;;;;;41.17;18.00;;;2.70;99.90;;;;;;5006364;28;20445;-82
2023/01/29 12:46:59;;;;;;;46.63;20.73;;;2.70;99.90;;;;;;5004956;28;20439;-80
2023/01/29 12:49:33;;;;;;;46.70;20.60;;;2.70;99.90;;;;;;5004700;28;20441;-82
2023/01/29 12:52:09;;;;;;;32.07;16.40;;;2.80;99.90;;;;;;5006656;28;20964;-81
2023/01/29 12:54:44;;;;;;;42.07;19.23;;;2.90;99.90;;;;;;5008219;28;20957;-83
2023/01/29 12:57:24;;;;;;;48.63;21.43;;;3.10;99.90;;;;;;5007422;28;20468;-82
2023/01/29 12:59:59;;;;;;;30.97;14.83;;;3.00;99.90;;;;;;5006169;28;20458;-80